Date,TemperatureHighF,TemperatureAvgF,TemperatureLowF,DewpointHighF,DewpointAvgF,DewpointLowF,HumidityHigh,HumidityAvg,HumidityLow,PressureMaxIn,PressureMinIn,WindSpeedMaxMPH,WindSpeedAvgMPH,GustSpeedMaxMPH,PrecipitationSumIn
2013-1-1,68.2,59.4,48.6,66.4,55.9,43.4,97,88,76,30.18,29.86,9,5,22,0.10
2013-1-2,48.6,42.0,39.7,43.7,38.8,36.2,95,88,73,30.32,30.15,7,4,16,0.35
2013-1-3,48.9,44.7,40.8,38.4,35.8,31.4,91,72,52,30.40,30.28,7,4,16,0.00
2013-1-4,48.9,46.8,43.5,40.6,38.5,36.6,89,73,65,30.44,30.33,8,4,18,0.00
2013-1-5,48.2,46.1,43.6,45.4,42.0,38.2,92,85,72,30.35,30.25,7,4,17,0.00
2013-1-6,61.7,49.3,39.6,46.7,43.3,38.6,97,81,52,30.35,30.25,7,3,16,0.00
2013-1-7,60.8,51.1,40.2,54.2,47.5,38.3,97,88,72,30.31,30.00,13,4,17,0.02
2013-1-8,67.0,61.5,55.1,66.3,60.7,54.2,99,97,95,30.00,29.78,24,5,24,0.19
2013-1-9,67.6,61.3,54.6,66.6,60.1,53.8,99,96,90,30.05,29.81,24,4,25,1.00
2013-1-10,63.7,57.0,52.9,55.7,51.8,48.5,98,84,60,30.12,30.02,13,3,14,0.01
2013-1-11,72.0,63.4,52.3,68.2,61.9,51.2,99,95,84,30.05,29.82,18,4,18,0.01
2013-1-12,70.8,68.2,66.2,68.7,67.3,65.6,99,97,92,29.85,29.63,32,7,32,0.00
2013-1-13,68.5,53.2,44.5,67.9,45.3,37.8,98,76,52,30.10,29.71,23,6,24,0.04
2013-1-14,49.1,44.3,41.1,43.0,39.1,35.2,94,82,66,30.19,30.07,18,4,18,0.00
2013-1-15,44.7,41.9,39.7,43.3,40.2,36.4,97,94,87,30.23,30.04,16,5,17,0.17
2013-1-16,57.0,45.1,36.2,36.7,28.2,18.0,86,55,23,30.38,30.22,22,5,22,0.00
2013-1-17,65.2,49.5,35.8,44.1,36.7,27.2,94,64,34,30.46,30.31,16,2,17,0.00
2013-1-18,63.8,50.6,38.6,49.0,43.8,35.4,96,79,52,30.50,30.32,13,2,13,0.00
2013-1-19,68.3,56.7,47.4,55.0,50.2,46.1,97,81,52,30.32,30.17,14,3,14,0.01
2013-1-20,70.5,57.9,44.4,58.5,52.8,43.3,98,84,59,30.25,30.11,14,2,15,0.00
2013-1-21,69.5,58.6,49.2,59.7,54.0,47.8,98,86,58,30.23,30.11,10,1,10,0.01
2013-1-22,71.0,58.4,45.9,60.5,54.0,44.9,98,87,58,30.30,30.17,13,2,13,0.01
2013-1-23,74.0,62.1,51.3,65.2,58.9,49.8,99,90,72,30.34,30.23,18,3,18,0.01
2013-1-24,73.7,65.2,58.9,65.1,62.0,58.1,97,90,73,30.30,30.15,19,5,19,0.02
2013-1-25,74.0,65.7,59.2,65.9,62.6,58.6,98,90,75,30.17,30.05,17,5,18,0.02
2013-1-26,73.8,66.8,62.5,65.6,63.0,60.7,97,88,73,30.15,30.06,21,6,22,0.00
2013-1-27,72.3,67.3,61.6,68.5,65.4,60.2,98,94,87,30.09,29.98,23,7,24,0.01
2013-1-28,75.0,69.7,67.1,69.4,67.4,65.8,97,93,82,30.08,29.91,24,9,30,0.00
2013-1-29,75.1,69.3,66.1,69.4,65.9,44.7,97,90,46,29.92,29.59,27,9,29,0.00
2013-1-30,67.3,59.6,47.8,45.5,23.6,7.9,47,27,11,30.25,29.75,28,6,28,0.00
2013-1-31,66.3,54.5,41.7,48.4,37.7,20.7,82,56,20,30.34,30.22,16,2,17,0.00
2013-2-1,69.2,59.3,48.7,56.9,50.5,46.3,97,75,49,30.35,30.21,17,3,17,0.00
2013-2-2,72.8,62.7,55.2,60.7,57.1,52.8,97,83,58,30.24,30.15,15,2,15,0.00
2013-2-3,72.7,62.1,50.2,61.4,58.2,49.4,98,88,59,30.30,30.03,14,3,14,0.01
2013-2-4,73.5,66.6,60.8,66.5,62.9,58.2,95,88,76,30.03,29.81,19,5,19,0.00
2013-2-5,80.1,67.1,59.1,68.3,64.4,58.2,99,92,64,29.97,29.85,15,4,15,0.01
2013-2-6,68.4,65.2,61.9,68.1,64.2,60.2,99,97,92,30.00,29.81,19,4,19,1.04
2013-2-7,73.7,66.1,59.8,68.6,64.0,58.8,98,93,82,29.99,29.88,11,2,11,0.00
2013-2-8,71.8,61.9,55.7,61.4,55.1,48.8,99,80,45,30.20,29.99,16,4,18,0.00
2013-2-9,70.5,66.1,60.0,67.8,63.8,57.6,97,92,88,30.07,29.80,20,6,21,0.02
2013-2-10,81.5,69.3,65.3,71.5,62.2,50.8,97,79,54,29.92,29.75,21,5,21,0.00
2013-2-11,65.2,61.3,57.0,59.7,56.3,52.3,98,84,67,29.98,29.88,21,5,21,0.00
2013-2-12,69.1,60.7,57.5,61.4,58.1,55.5,99,92,70,29.99,29.81,15,3,15,0.02
2013-2-13,62.1,54.8,48.2,56.8,45.4,39.3,95,72,46,30.18,29.98,17,3,17,0.00
2013-2-14,65.0,55.0,43.6,49.9,45.0,40.3,94,71,47,30.15,30.05,15,3,15,0.00
2013-2-15,68.4,58.8,47.6,56.8,49.3,42.2,95,72,43,30.31,30.06,21,3,22,0.00
2013-2-16,62.9,53.0,41.2,43.7,35.4,25.8,71,53,28,30.48,30.28,19,4,21,0.00
2013-2-17,69.0,61.0,52.8,58.4,51.5,43.5,86,72,51,30.27,30.01,22,5,22,0.00
2013-2-18,73.3,67.3,64.6,65.5,62.4,58.3,93,84,74,30.01,29.86,22,7,26,0.00
2013-2-19,66.4,62.0,59.1,62.6,52.0,42.3,98,71,52,30.20,29.99,23,6,23,0.00
2013-2-20,70.9,66.8,62.2,66.8,63.4,56.8,95,89,81,30.02,29.69,24,8,24,0.00
2013-2-21,80.8,70.8,66.4,69.6,62.7,49.3,96,77,46,29.81,29.60,24,6,24,0.00
2013-2-22,70.0,64.7,59.1,56.6,49.1,41.1,83,59,38,29.93,29.80,29,5,29,0.00
2013-2-23,71.3,58.7,51.2,54.0,47.5,42.0,95,68,46,30.02,29.87,16,4,18,0.00
2013-2-24,66.3,59.0,45.9,64.0,57.3,44.6,98,94,85,29.91,29.61,14,2,14,0.01
2013-2-25,71.7,64.6,52.5,67.0,43.5,15.5,99,57,13,29.89,29.53,41,9,42,0.00
2013-2-26,72.5,56.4,46.1,52.0,35.2,21.7,84,48,15,30.02,29.86,19,4,19,0.00
2013-2-27,75.8,61.1,49.3,58.5,45.8,29.6,96,63,20,30.19,29.88,19,3,21,0.00
2013-2-28,60.4,51.5,43.1,37.5,30.7,23.8,73,47,27,30.30,30.18,24,4,24,0.00
2013-3-1,68.0,54.4,42.1,50.6,37.5,26.3,84,55,22,30.29,30.14,20,3,20,0.00
2013-3-2,65.3,53.2,42.6,50.1,33.3,22.6,89,52,22,30.41,30.24,21,4,21,0.00
2013-3-3,67.5,57.1,42.1,55.2,46.7,36.3,91,70,48,30.29,30.01,23,5,24,0.00
2013-3-4,73.3,66.2,61.3,61.9,59.3,55.1,92,79,63,30.01,29.76,28,9,28,0.00
2013-3-5,69.5,62.3,50.3,62.1,44.3,23.4,93,58,21,30.31,29.80,27,7,30,0.00
2013-3-6,60.6,51.7,35.6,46.0,36.2,25.6,88,57,40,30.43,30.23,16,3,18,0.00
2013-3-7,72.5,61.3,46.5,60.9,55.5,42.5,96,82,63,30.23,30.11,23,5,23,0.00
2013-3-8,73.3,67.3,63.8,66.4,63.4,60.6,94,88,78,30.12,30.02,26,8,26,0.00
2013-3-9,71.7,68.6,66.3,66.5,65.1,63.8,94,89,83,30.02,29.67,21,8,21,0.00
2013-3-10,75.8,67.3,56.9,67.0,53.0,34.8,97,65,24,30.07,29.60,27,6,28,0.09
2013-3-11,71.8,59.2,46.3,41.5,32.8,22.3,72,42,16,30.17,30.00,21,4,23,0.00
2013-3-12,70.2,59.9,50.1,53.3,46.7,39.8,86,64,42,30.23,30.07,16,4,16,0.00
2013-3-13,70.2,60.9,50.0,57.3,52.2,45.4,97,75,46,30.41,30.22,18,4,18,0.00
2013-3-14,73.0,63.6,53.8,60.9,56.3,52.4,97,78,58,30.39,30.26,17,4,19,0.00
2013-3-15,74.4,66.1,59.3,61.8,59.8,56.8,94,81,63,30.27,30.06,21,6,24,0.00
2013-3-16,76.0,68.4,63.8,65.0,63.0,60.6,92,83,68,30.06,29.81,27,8,27,0.00
2013-3-17,76.7,70.0,65.3,68.7,66.1,63.3,96,88,74,29.85,29.67,25,7,25,0.00
2013-3-18,77.5,70.5,66.9,68.3,66.3,64.7,97,87,70,29.88,29.71,16,5,17,0.00
2013-3-19,77.0,69.0,61.7,69.1,65.4,58.0,97,89,70,29.98,29.82,20,5,20,0.01
2013-3-20,74.2,67.6,61.9,66.7,58.1,48.4,95,73,52,30.14,29.88,27,6,27,0.02
2013-3-21,73.5,67.8,62.2,65.9,61.6,56.1,91,81,68,30.04,29.68,19,6,19,0.00
2013-3-22,76.5,71.2,68.4,70.8,68.4,66.0,95,91,82,29.73,29.63,19,6,21,0.00
2013-3-23,79.3,71.3,65.5,71.2,67.9,64.0,97,90,68,29.69,29.58,14,3,18,0.00
2013-3-24,67.3,62.3,52.0,65.7,41.4,21.1,98,55,18,30.13,29.65,26,6,26,0.02
2013-3-25,61.4,52.6,44.5,34.5,29.3,15.4,61,43,19,30.35,30.13,20,5,23,0.00
2013-3-26,63.7,55.6,47.0,39.2,33.3,27.1,62,44,28,30.46,30.33,20,4,21,0.00
2013-3-27,66.7,61.3,55.1,57.8,48.3,37.5,81,63,50,30.35,30.19,21,7,22,0.00
2013-3-28,71.7,66.4,63.2,61.8,60.4,57.6,89,81,71,30.22,30.14,21,6,21,0.00
2013-3-29,76.2,68.0,61.1,65.1,62.8,59.6,96,84,65,30.18,30.07,22,7,25,0.00
2013-3-30,77.0,69.4,64.2,68.9,65.5,62.4,95,88,75,30.11,29.94,22,6,23,0.00
2013-3-31,77.0,70.6,66.8,70.0,67.4,65.4,97,90,79,29.97,29.79,23,6,23,0.00
2013-4-1,76.3,70.3,67.2,69.1,67.4,66.2,98,91,76,30.02,29.90,20,5,22,0.00
2013-4-2,77.9,71.2,68.1,72.4,68.9,67.0,97,92,80,30.00,29.77,17,4,17,0.06
2013-4-3,73.8,65.6,55.4,69.0,60.0,51.2,97,83,65,30.10,29.79,23,5,23,0.00
2013-4-4,74.0,60.7,53.6,51.6,48.0,44.3,88,66,35,30.18,30.05,18,4,19,0.00
2013-4-5,65.9,56.8,45.4,56.0,48.8,41.8,87,75,60,30.27,30.09,16,4,17,0.00
2013-4-6,75.3,67.8,60.3,62.7,60.3,55.8,87,77,62,30.10,29.90,24,7,24,0.00
2013-4-7,77.3,70.3,65.5,66.1,64.3,62.4,92,82,65,29.94,29.81,26,7,27,0.00
2013-4-8,77.3,71.7,68.1,70.1,68.2,66.0,95,89,77,29.83,29.67,27,8,28,0.00
2013-4-9,78.7,73.4,69.2,72.0,69.6,67.2,94,88,78,29.73,29.58,30,10,31,0.00
2013-4-10,79.0,67.5,57.2,72.7,63.4,49.3,95,87,65,29.83,29.62,23,7,24,0.00
2013-4-11,71.7,57.7,45.6,52.3,46.2,41.0,94,68,37,29.96,29.78,23,5,23,0.64
2013-4-12,73.0,62.9,49.8,61.8,56.6,47.6,97,81,64,29.97,29.87,20,4,20,0.00
2013-4-13,75.5,68.4,61.5,65.3,62.0,59.5,96,81,61,29.95,29.75,21,5,23,0.00
2013-4-14,79.3,71.2,64.5,71.5,67.4,62.5,97,88,74,29.78,29.66,22,5,22,0.00
2013-4-15,80.7,74.1,69.5,72.0,69.8,67.7,96,87,70,29.82,29.70,24,8,24,0.00
2013-4-16,77.7,73.7,71.6,72.1,70.7,68.3,96,91,81,29.87,29.76,22,8,23,0.00
2013-4-17,78.3,74.1,71.7,73.8,71.9,70.5,97,93,84,29.87,29.66,25,9,25,0.00
2013-4-18,78.0,67.4,57.5,74.1,63.2,47.6,97,87,65,30.04,29.62,19,7,24,0.06
2013-4-19,68.3,57.9,52.4,47.8,40.0,29.2,71,53,30,30.31,30.05,20,5,21,0.00
2013-4-20,70.5,60.5,43.9,55.8,46.6,39.3,85,62,39,30.22,30.04,18,5,18,0.00
2013-4-21,76.8,68.8,61.3,63.7,59.8,54.6,89,74,57,30.11,30.01,18,5,20,0.00
2013-4-22,77.0,70.5,65.3,67.5,65.3,63.0,93,84,69,30.08,29.92,20,6,20,0.00
2013-4-23,77.3,72.2,68.2,70.7,68.8,66.4,95,89,78,29.94,29.83,25,7,25,0.00
2013-4-24,72.5,56.9,48.6,70.6,51.8,45.7,96,83,71,30.19,29.94,27,5,27,0.05
2013-4-25,66.4,62.2,60.3,65.5,56.2,50.0,97,81,65,30.26,30.14,18,4,18,0.11
2013-4-26,77.9,71.6,66.4,72.6,69.3,65.5,98,93,81,30.17,30.03,20,7,27,0.00
2013-4-27,79.0,73.4,70.2,72.4,70.4,69.0,97,91,78,30.08,29.92,23,7,23,0.00
2013-4-28,74.7,70.1,63.6,71.0,67.7,62.5,98,92,87,30.03,29.84,24,4,24,0.62
2013-4-29,79.2,72.1,66.5,72.4,69.7,65.2,98,93,72,29.93,29.78,17,3,18,0.77
2013-4-30,80.8,71.8,64.6,72.2,68.3,63.3,98,90,72,29.83,29.71,17,4,18,0.04
2013-5-1,82.0,74.2,69.0,73.4,70.8,68.0,98,90,72,29.89,29.75,17,4,17,0.00
2013-5-2,80.1,67.7,52.9,70.1,59.5,42.2,97,76,59,30.26,29.78,26,6,26,0.00
2013-5-3,70.1,58.7,49.4,42.6,33.7,27.6,68,41,22,30.30,30.08,27,7,27,0.00
2013-5-4,75.2,63.7,48.5,55.2,46.3,33.8,78,55,31,30.11,29.90,17,4,17,0.00
2013-5-5,81.8,69.0,58.8,59.3,56.5,48.4,87,67,32,30.08,29.95,18,4,18,0.00
2013-5-6,77.8,67.4,55.8,61.8,57.9,52.6,92,73,47,30.12,29.97,17,3,17,0.00
2013-5-7,77.3,69.6,56.6,66.6,62.2,54.6,96,78,61,30.08,29.96,18,4,18,0.00
2013-5-8,78.8,73.5,69.5,70.0,67.9,65.7,92,83,65,30.03,29.92,22,7,22,0.00
2013-5-9,78.2,74.8,72.2,73.8,72.1,69.5,96,91,85,29.96,29.81,21,7,22,0.00
2013-5-10,76.5,73.5,68.7,75.0,71.6,66.3,97,93,87,29.95,29.82,19,4,19,0.05
2013-5-11,84.8,74.5,68.1,69.6,67.8,63.8,97,81,52,30.08,29.94,18,4,18,0.26
2013-5-12,76.4,70.1,65.3,72.3,63.8,58.4,97,81,72,30.18,30.04,16,3,16,0.20
2013-5-13,79.7,71.3,61.5,66.9,63.6,59.7,95,78,60,30.26,30.15,16,4,17,0.00
2013-5-14,81.3,74.5,69.4,72.4,69.0,64.7,89,83,71,30.22,30.06,22,6,22,0.00
2013-5-15,78.7,74.5,72.3,73.8,71.6,69.9,97,91,83,30.12,29.90,27,8,28,0.28
2013-5-16,81.8,76.5,73.2,75.0,72.4,70.0,94,87,79,29.90,29.75,26,8,26,0.00
2013-5-17,83.0,77.4,73.8,75.2,73.2,71.5,95,87,69,29.91,29.79,23,8,23,0.00
2013-5-18,84.0,77.9,75.4,75.5,73.9,72.5,95,88,71,29.93,29.83,24,8,24,0.00
2013-5-19,82.5,78.1,75.7,75.5,74.1,73.0,93,88,78,29.88,29.76,26,8,26,0.00
2013-5-20,83.3,78.3,75.6,76.5,74.4,73.2,94,88,78,29.84,29.72,22,8,22,0.00
2013-5-21,83.6,78.8,76.1,76.2,75.0,74.0,95,88,77,29.81,29.70,24,8,24,0.00
2013-5-22,86.7,79.6,76.6,76.6,75.3,72.8,96,87,66,29.89,29.77,17,5,18,0.00
2013-5-23,84.5,79.3,76.4,77.7,75.7,74.3,95,89,78,29.99,29.85,19,7,19,0.00
2013-5-24,84.0,79.6,77.5,76.7,75.3,73.9,94,87,74,30.09,29.96,22,8,24,0.00
2013-5-25,82.3,79.0,77.0,76.7,75.1,73.4,92,88,81,30.10,30.00,21,9,22,0.00
2013-5-26,86.0,79.4,76.3,74.1,72.8,71.2,90,81,64,30.08,29.97,21,8,25,0.00
2013-5-27,85.8,80.0,76.7,75.8,74.1,72.2,91,83,69,30.01,29.87,25,8,26,0.00
2013-5-28,85.3,80.0,77.6,76.7,74.7,73.6,89,84,73,29.92,29.79,28,10,29,0.00
2013-5-29,83.0,79.7,78.1,77.0,75.2,73.9,89,86,79,29.85,29.73,32,9,35,0.01
2013-5-30,86.0,81.0,78.0,77.8,76.2,74.5,91,85,75,29.84,29.76,23,9,23,0.00
2013-5-31,87.3,81.8,78.3,78.1,76.7,75.7,92,85,73,29.88,29.78,24,8,24,0.00
2013-6-1,87.3,82.3,79.5,78.0,76.6,75.2,90,83,73,29.89,29.80,26,9,26,0.00
2013-6-2,87.5,80.0,71.8,78.4,75.0,69.5,97,85,70,30.01,29.86,17,2,18,0.61
2013-6-3,87.0,78.9,70.8,75.2,72.1,69.5,96,81,63,29.95,29.83,14,2,15,0.00
2013-6-4,86.7,79.0,71.1,74.2,71.4,68.2,94,78,61,29.89,29.81,15,2,15,0.00
2013-6-5,88.5,81.8,77.4,76.2,73.9,70.8,88,78,60,29.86,29.77,18,4,18,0.00
2013-6-6,89.4,82.2,75.5,77.2,75.4,72.5,94,80,64,29.85,29.74,19,3,19,0.00
2013-6-7,87.0,78.1,68.1,76.8,73.0,66.5,97,85,65,29.93,29.82,19,2,21,1.46
2013-6-8,86.5,78.1,69.1,77.4,73.4,68.2,97,86,70,29.90,29.80,21,4,23,0.03
2013-6-9,88.5,83.2,80.1,78.2,76.1,71.2,90,80,60,29.92,29.81,19,5,19,0.00
2013-6-10,89.7,82.8,77.2,78.5,75.8,73.1,93,80,63,29.96,29.90,10,0,11,0.00
2013-6-11,88.7,83.1,78.8,78.7,75.9,72.7,88,79,69,30.02,29.94,17,5,19,0.00
2013-6-12,87.0,82.1,73.0,79.8,76.7,70.0,97,84,73,30.03,29.96,19,6,22,0.41
2013-6-13,88.0,83.0,80.8,79.5,77.3,75.2,88,83,70,30.03,29.91,18,5,19,0.00
2013-6-14,87.8,82.7,80.5,80.1,77.7,76.1,91,85,75,29.97,29.87,18,5,18,0.02
2013-6-15,88.8,83.7,80.6,77.8,76.4,74.4,88,79,65,29.97,29.88,18,5,18,0.00
2013-6-16,88.8,83.2,80.0,79.5,77.0,75.2,88,82,72,30.00,29.92,20,6,22,0.00
2013-6-17,89.0,83.7,80.7,79.4,77.3,75.6,89,81,70,29.98,29.87,22,7,22,0.00
2013-6-18,89.2,83.3,79.2,78.0,76.4,74.7,88,80,67,29.97,29.87,19,6,20,0.00
2013-6-19,89.2,83.3,79.8,77.4,76.1,74.7,87,79,65,30.00,29.90,19,6,20,0.00
2013-6-20,89.2,83.5,79.7,78.5,77.0,75.6,89,81,67,30.04,29.94,22,6,22,0.00
2013-6-21,89.2,83.6,79.7,77.9,76.8,75.7,89,80,68,30.07,29.99,18,6,19,0.00
2013-6-22,89.3,83.4,79.5,77.9,76.5,74.2,90,80,63,30.03,29.92,20,5,20,0.00
2013-6-23,89.3,83.3,79.1,78.1,76.1,74.5,89,79,67,29.99,29.90,23,7,23,0.00
2013-6-24,89.5,83.7,80.0,78.2,76.9,75.5,90,81,67,30.03,29.93,24,7,24,0.00
2013-6-25,88.8,83.2,79.4,78.2,76.9,75.9,90,82,69,30.01,29.91,27,7,28,0.00
2013-6-26,89.3,83.1,79.5,79.1,77.4,76.1,91,83,69,29.97,29.90,24,7,24,0.00
2013-6-27,88.8,82.8,78.4,77.4,76.2,74.5,90,81,66,30.00,29.92,18,6,20,0.00
2013-6-28,89.8,83.4,79.1,77.5,76.0,74.2,91,79,62,29.98,29.83,18,5,19,0.00
2013-6-29,93.2,84.3,78.2,78.1,75.6,73.1,90,76,58,29.88,29.72,17,6,17,0.00
2013-6-30,86.7,79.9,69.9,76.7,72.1,67.9,94,77,58,29.93,29.76,22,3,23,0.90
2013-7-1,92.2,82.2,74.3,75.3,70.3,63.1,90,70,40,29.96,29.83,15,2,15,0.00
2013-7-2,90.2,81.2,74.2,73.9,68.9,62.7,91,69,43,30.02,29.92,15,2,15,0.02
2013-7-3,90.7,80.9,77.2,73.7,71.0,60.6,85,73,37,30.01,29.89,18,4,18,0.00
2013-7-4,87.8,81.0,73.5,75.7,72.8,69.7,93,77,58,29.97,29.88,16,3,16,0.00
2013-7-5,89.0,81.6,72.1,77.0,73.8,70.0,96,78,59,29.95,29.84,15,3,17,0.00
2013-7-6,89.7,82.1,74.6,77.5,75.4,71.8,94,81,65,29.90,29.82,17,4,21,0.00
2013-7-7,88.7,82.3,77.7,78.3,75.3,72.5,91,80,63,29.98,29.86,20,4,21,0.00
2013-7-8,88.8,83.3,80.0,78.5,76.7,74.7,89,81,69,30.10,29.97,20,6,20,0.00
2013-7-9,89.9,84.1,0.0,78.7,76.9,75.2,92,78,65,30.11,30.02,18,5,18,0.00
2013-7-10,89.3,55.7,0.0,77.4,76.3,74.2,85,50,64,30.07,29.94,20,4,20,0.00
2013-7-11,90.2,84.0,80.0,76.8,75.4,71.5,86,76,59,30.00,29.90,19,5,19,0.00
2013-7-12,89.8,83.5,79.7,76.4,74.7,72.0,86,75,60,29.95,29.89,17,4,21,0.00
2013-7-13,91.3,83.8,78.9,76.6,73.9,68.6,88,73,49,29.96,29.86,16,4,18,0.00
2013-7-14,89.5,83.5,79.8,76.7,75.3,73.1,87,77,63,29.92,29.83,22,7,22,0.00
2013-7-15,90.2,83.8,81.0,77.2,75.4,73.7,84,76,63,29.97,29.85,22,7,23,0.00
2013-7-16,88.8,82.2,76.5,78.1,74.8,70.3,93,79,61,30.04,29.92,24,6,24,0.12
2013-7-17,80.2,75.8,73.3,77.8,73.8,71.3,97,94,85,30.13,30.02,19,2,21,1.04
2013-7-18,87.7,78.6,71.7,77.8,74.5,70.5,98,88,67,30.11,29.96,17,2,17,0.39
2013-7-19,88.8,82.3,74.5,78.0,75.1,71.4,96,80,61,30.03,29.91,18,4,19,0.00
2013-7-20,88.5,82.7,77.0,77.7,75.5,73.8,90,80,68,29.97,29.86,17,4,17,0.00
2013-7-21,89.8,84.2,81.3,79.4,77.8,76.3,88,81,68,29.95,29.88,20,6,23,0.05
2013-7-22,90.1,84.9,82.0,79.5,78.3,77.0,88,81,69,30.00,29.91,27,7,27,0.00
2013-7-23,89.5,84.3,81.3,78.6,76.7,74.7,86,78,67,30.01,29.90,22,8,23,0.00
2013-7-24,89.3,83.9,80.8,78.5,76.6,75.2,87,79,67,29.98,29.88,19,6,19,0.00
2013-7-25,89.9,84.1,80.1,79.3,77.2,75.0,88,80,68,30.01,29.95,21,6,21,0.00
2013-7-26,89.7,84.0,80.8,79.9,77.4,75.7,87,81,72,30.03,29.91,27,7,27,0.00
2013-7-27,89.5,83.6,80.5,78.9,77.4,76.6,90,82,68,29.96,29.82,21,7,25,0.00
2013-7-28,89.3,83.8,80.0,78.4,77.6,76.5,91,82,68,29.94,29.86,27,7,27,0.00
2013-7-29,89.2,83.8,80.0,78.1,77.0,75.8,90,81,67,30.05,29.93,26,7,26,0.00
2013-7-30,89.0,83.3,79.5,79.1,77.5,76.0,92,83,70,30.09,30.00,24,7,27,0.00
2013-7-31,89.9,83.2,78.5,78.0,76.6,74.7,90,81,66,30.08,29.96,18,4,19,0.00
2013-8-1,91.1,83.8,79.8,77.4,75.9,71.2,91,78,54,30.02,29.92,19,5,20,0.00
2013-8-2,89.2,83.8,80.0,77.5,76.3,74.1,89,79,62,29.98,29.90,17,6,19,0.00
2013-8-3,90.5,84.2,79.8,78.9,77.3,73.0,91,80,66,30.01,29.94,21,6,21,0.00
2013-8-4,91.0,84.8,80.9,79.3,77.7,75.5,90,80,66,30.05,29.96,19,6,24,0.00
2013-8-5,90.2,84.4,80.9,78.8,77.6,76.2,90,81,66,30.03,29.92,25,7,25,0.00
2013-8-6,91.0,84.1,80.8,79.4,77.9,77.0,91,82,67,29.96,29.84,25,8,26,0.00
2013-8-7,90.4,84.0,79.9,78.6,77.6,76.5,91,82,67,29.93,29.83,28,7,28,0.00
2013-8-8,90.0,83.5,79.6,79.1,77.6,76.3,91,83,69,29.91,29.82,24,7,25,0.00
2013-8-9,91.5,83.5,78.7,78.8,76.7,75.0,92,81,61,29.95,29.86,18,4,18,0.00
2013-8-10,92.7,83.5,76.6,80.8,77.5,74.0,96,83,58,30.00,29.93,19,3,19,0.00
2013-8-11,91.8,83.5,77.6,79.5,76.4,73.7,96,80,57,30.03,29.96,21,3,23,0.00
2013-8-12,91.0,84.0,78.9,78.2,76.4,72.6,89,79,58,30.07,29.96,19,4,20,0.00
2013-8-13,91.8,84.7,80.5,78.6,77.5,75.1,90,80,62,30.03,29.90,19,5,20,0.00
2013-8-14,92.8,84.4,80.9,78.3,76.3,69.6,89,78,51,29.98,29.88,19,6,20,0.00
2013-8-15,92.0,83.9,79.8,77.5,76.2,73.8,88,79,60,29.98,29.88,22,5,22,0.00
2013-8-16,91.7,84.0,76.6,78.4,76.4,72.5,88,79,61,29.99,29.87,22,3,22,0.00
2013-8-17,92.0,82.1,74.4,76.1,73.0,70.3,93,75,54,29.99,29.89,20,4,20,0.00
2013-8-18,91.3,82.2,72.3,75.5,70.9,64.0,92,70,45,30.01,29.94,19,3,20,0.00
2013-8-19,90.8,81.5,71.6,76.0,72.5,68.2,93,76,54,30.02,29.91,18,3,18,0.00
2013-8-20,81.3,78.0,72.7,76.4,74.1,71.0,97,88,78,30.03,29.92,14,2,14,0.54
2013-8-21,90.0,83.1,73.4,79.8,76.4,71.3,96,81,65,30.03,29.97,18,4,19,0.07
2013-8-22,90.8,82.9,76.9,78.6,75.9,73.5,95,80,59,30.04,29.92,14,2,15,0.00
2013-8-23,92.1,83.7,76.9,78.4,75.8,71.7,94,78,58,29.98,29.88,19,2,20,0.00
2013-8-24,91.3,83.6,76.1,79.1,76.4,73.8,94,80,61,29.99,29.91,19,3,20,0.00
2013-8-25,92.0,83.0,75.6,78.2,75.8,73.7,95,80,57,30.03,29.95,19,3,19,0.00
2013-8-26,81.5,76.9,74.0,77.4,75.0,72.4,98,94,84,30.08,29.98,18,1,18,1.21
2013-8-27,88.8,83.2,77.1,78.9,77.1,74.7,94,82,67,30.07,29.98,19,5,19,0.00
2013-8-28,90.5,82.3,75.2,78.0,75.6,73.0,95,81,60,30.07,29.98,15,3,16,0.10
2013-8-29,91.5,83.7,76.3,79.0,75.4,70.7,95,77,52,30.06,29.96,15,2,16,0.00
2013-8-30,92.0,84.1,79.9,77.2,75.0,70.1,89,75,51,30.02,29.90,15,4,16,0.00
2013-8-31,90.0,83.7,79.7,76.1,74.8,72.2,85,75,60,29.95,29.84,18,5,18,0.00
2013-9-1,90.8,84.6,79.8,78.3,76.3,74.4,88,77,61,29.92,29.82,21,5,21,0.00
2013-9-2,91.2,84.9,81.3,78.9,76.7,70.2,87,77,54,29.95,29.85,17,4,18,0.00
2013-9-3,91.5,83.4,77.4,78.1,75.7,71.8,92,78,58,30.00,29.89,16,2,16,0.01
2013-9-4,92.4,84.3,77.5,77.3,75.5,71.1,91,76,51,30.03,29.93,17,3,17,0.00
2013-9-5,91.5,84.1,77.5,77.5,75.8,73.8,92,77,59,30.04,29.97,18,3,19,0.00
2013-9-6,90.4,81.5,75.6,79.1,75.4,72.7,93,82,63,30.06,29.94,19,2,19,0.19
2013-9-7,88.2,80.3,73.8,79.4,75.6,72.6,97,86,68,30.01,29.89,14,2,15,0.38
2013-9-8,83.7,78.4,71.1,77.8,74.3,69.6,97,87,76,29.98,29.86,17,2,18,1.20
2013-9-9,87.3,80.4,76.1,77.2,74.6,72.3,94,83,66,29.94,29.86,22,6,22,0.15
2013-9-10,88.4,81.5,77.4,78.6,75.8,71.8,92,83,68,30.00,29.91,20,5,22,0.17
2013-9-11,89.0,81.6,75.6,79.3,75.7,72.2,95,83,64,30.04,29.95,18,2,18,0.04
2013-9-12,88.8,81.3,73.9,78.2,75.3,71.0,96,83,62,30.01,29.88,18,2,18,0.57
2013-9-13,88.2,81.1,73.8,77.6,74.6,70.2,97,81,66,29.92,29.79,20,3,20,0.01
2013-9-14,89.2,82.7,74.7,77.5,75.4,72.9,95,79,62,29.88,29.80,20,3,20,0.00
2013-9-15,88.7,82.8,78.1,79.3,76.5,73.5,91,82,68,29.92,29.83,23,5,24,0.11
2013-9-16,87.6,80.6,75.6,79.3,76.7,73.0,97,88,74,29.96,29.87,24,4,24,0.50
2013-9-17,89.2,82.3,77.9,80.0,77.0,73.1,96,85,69,29.99,29.90,20,4,20,0.12
2013-9-18,86.8,81.5,76.2,79.6,76.7,73.5,96,86,74,29.96,29.86,22,4,23,0.15
2013-9-19,89.1,83.0,78.0,79.0,77.2,75.3,93,83,71,29.90,29.80,17,5,18,0.02
2013-9-20,89.2,82.9,74.7,80.4,78.0,73.3,96,85,72,29.83,29.69,15,4,18,0.79
2013-9-21,77.1,74.0,71.8,73.9,71.1,68.1,98,91,79,29.81,29.70,21,4,21,0.61
2013-9-22,84.9,75.4,66.5,68.7,64.5,57.6,94,72,41,29.82,29.73,18,3,18,0.00
2013-9-23,85.7,76.1,66.4,75.2,70.1,64.0,95,82,67,29.79,29.71,13,2,13,0.00
2013-9-24,93.3,81.4,70.5,77.2,72.1,67.5,94,76,44,29.88,29.78,11,1,11,0.00
2013-9-25,92.4,81.4,73.9,77.4,71.9,65.0,93,75,41,29.88,29.78,10,3,12,0.00
2013-9-26,89.5,81.2,74.5,78.0,74.6,72.2,95,81,61,29.87,29.80,16,4,16,0.00
2013-9-27,89.3,83.6,80.4,79.9,78.0,75.2,90,84,73,29.89,29.81,20,8,23,0.00
2013-9-28,89.8,84.2,81.0,79.9,77.9,75.2,90,82,69,29.95,29.85,20,6,20,0.00
2013-9-29,89.5,81.1,74.8,77.0,75.2,73.2,96,83,61,29.99,29.86,13,4,17,0.10
2013-9-30,86.6,78.6,71.5,77.4,74.7,70.6,97,88,72,29.92,29.79,14,2,14,0.00
2013-10-1,87.0,81.1,78.3,79.0,76.5,74.0,94,86,75,29.90,29.81,17,5,18,0.57
2013-10-2,88.5,82.5,78.8,78.1,75.8,73.2,87,80,67,29.93,29.84,18,5,18,0.00
2013-10-3,87.3,82.1,77.7,76.0,74.3,72.2,90,78,66,29.92,29.84,19,5,19,0.00
2013-10-4,87.3,82.2,79.3,77.1,74.9,72.8,86,79,69,29.90,29.84,16,6,21,0.00
2013-10-5,88.0,81.4,75.1,77.6,75.2,72.5,93,82,69,29.92,29.83,15,4,15,0.00
2013-10-6,78.7,67.1,55.8,75.8,56.2,47.1,95,70,36,30.11,29.91,22,4,23,0.35
2013-10-7,82.5,67.6,55.3,57.8,51.0,41.0,86,60,26,30.15,30.03,13,2,13,0.00
2013-10-8,81.8,68.7,56.5,61.1,57.3,52.9,89,69,42,30.08,29.98,13,1,13,0.00
2013-10-9,84.5,76.2,64.2,67.2,64.4,58.3,85,68,51,30.03,29.94,16,4,16,0.00
2013-10-10,85.1,79.3,74.6,72.8,69.6,65.6,82,73,61,30.01,29.89,21,6,21,0.00
2013-10-11,86.7,81.3,78.1,78.3,75.9,71.8,92,84,73,29.92,29.82,20,7,20,0.00
2013-10-12,87.5,82.2,79.2,79.9,77.9,76.9,94,87,75,30.00,29.88,20,5,20,0.00
2013-10-13,83.5,79.5,73.3,77.9,76.0,71.5,97,89,79,30.09,29.97,23,4,23,0.39
2013-10-14,84.5,79.8,76.3,75.9,73.7,69.9,96,82,68,30.05,29.91,19,5,20,0.01
2013-10-15,85.8,80.5,77.6,74.3,72.6,71.0,86,77,65,29.96,29.85,16,5,16,0.00
2013-10-16,79.6,73.9,63.9,75.5,68.3,59.7,91,83,72,30.03,29.87,17,3,17,0.00
2013-10-17,78.0,68.4,63.2,63.1,59.9,55.4,88,75,57,30.08,29.94,14,3,15,0.00
2013-10-18,78.9,73.6,68.3,75.5,70.4,62.2,97,90,80,29.97,29.80,15,2,15,0.60
2013-10-19,72.8,65.2,54.5,71.6,57.9,48.1,97,79,46,30.12,29.88,19,4,20,0.00
2013-10-20,76.5,63.8,49.8,66.4,57.4,46.3,91,80,67,30.08,29.91,11,2,11,0.00
2013-10-21,79.6,73.2,67.6,74.2,69.8,65.3,98,89,80,29.95,29.84,15,2,15,0.44
2013-10-22,78.4,67.6,56.8,68.6,59.8,50.6,98,78,44,30.11,29.95,15,3,16,0.00
2013-10-23,80.7,65.1,52.6,58.8,50.3,42.1,85,63,28,30.18,30.09,12,1,12,0.00
2013-10-24,80.8,67.9,56.0,64.6,59.6,52.0,94,77,48,30.20,30.11,12,1,13,0.00
2013-10-25,80.1,71.6,59.8,71.6,65.2,58.0,96,81,65,30.27,30.17,14,3,18,0.00
2013-10-26,82.0,76.0,71.8,70.3,68.3,65.7,89,77,62,30.18,30.06,21,6,21,0.00
2013-10-27,84.0,74.6,66.4,73.6,69.5,64.9,97,85,63,30.08,29.97,15,2,15,0.00
2013-10-28,83.0,76.5,71.0,74.4,71.6,69.7,97,85,70,30.06,29.98,22,6,22,0.00
2013-10-29,82.7,78.3,75.1,75.3,73.0,71.0,92,84,73,30.08,29.97,22,8,22,0.00
2013-10-30,85.0,79.4,76.6,78.1,76.1,74.9,95,90,79,30.00,29.83,23,7,25,0.00
2013-10-31,88.0,79.3,73.7,78.4,74.7,67.4,96,87,53,29.88,29.77,23,5,23,0.76
2013-11-1,82.2,74.9,65.9,72.0,68.8,62.9,95,82,68,29.98,29.81,15,3,15,0.00
2013-11-2,76.8,66.6,58.6,67.3,45.3,34.4,93,49,22,30.24,29.98,23,4,23,0.00
2013-11-3,76.5,64.8,50.8,57.3,52.2,42.9,86,65,48,30.21,30.02,15,3,15,0.00
2013-11-4,76.7,69.5,59.0,69.6,64.0,54.6,92,83,63,30.04,29.92,12,2,12,0.00
2013-11-5,81.8,75.0,67.3,74.5,70.9,65.3,97,88,75,29.99,29.90,20,4,22,0.00
2013-11-6,85.0,73.0,57.2,74.7,68.2,52.0,96,86,59,30.23,29.95,20,4,21,0.11
2013-11-7,67.3,59.1,53.5,51.7,43.5,34.9,82,58,33,30.39,30.22,18,5,21,0.01
2013-11-8,68.5,59.9,51.8,57.4,51.8,44.6,91,75,63,30.34,30.14,17,3,17,0.00
2013-11-9,76.3,66.1,56.2,65.9,61.0,54.3,95,84,67,30.16,30.09,13,2,13,0.00
2013-11-10,68.3,65.5,62.7,65.2,60.4,53.3,96,84,60,30.26,30.13,17,2,17,0.00
2013-11-11,76.2,68.0,63.2,65.2,60.6,54.3,94,78,67,30.23,30.12,12,2,13,0.00
2013-11-12,73.5,63.1,54.0,62.2,55.3,45.3,96,77,52,30.53,30.17,24,6,26,0.00
2013-11-13,56.0,48.6,43.2,46.7,36.5,28.5,76,64,36,30.59,30.39,24,3,24,0.00
2013-11-14,65.1,54.8,42.8,58.9,48.9,34.3,95,81,67,30.39,30.03,13,1,13,0.00
2013-11-15,76.1,64.0,52.1,65.3,59.8,50.3,97,87,67,30.03,29.89,12,2,12,0.00
2013-11-16,78.0,72.1,66.1,73.9,70.2,64.7,98,94,87,29.92,29.78,15,3,15,0.02
2013-11-17,79.8,73.7,70.5,74.0,71.3,69.6,97,93,81,29.92,29.79,16,4,16,0.00
2013-11-18,79.3,72.5,68.5,74.4,70.3,59.9,98,93,74,30.04,29.91,16,2,16,0.01
2013-11-19,71.5,67.9,65.8,64.4,62.0,59.3,90,82,72,30.06,29.96,20,5,20,0.00
2013-11-20,79.5,72.7,67.5,73.2,69.4,63.8,96,90,79,29.97,29.84,17,4,17,0.00
2013-11-21,82.2,75.6,71.0,76.1,73.1,69.8,97,92,80,30.03,29.91,19,5,19,0.00
2013-11-22,76.5,57.1,39.5,75.7,56.2,38.5,99,97,81,30.30,30.01,24,4,26,0.41
2013-11-23,46.2,43.2,39.3,43.5,41.0,38.0,97,92,86,30.38,30.28,19,5,21,0.00
2013-11-24,46.0,43.9,40.9,45.0,40.9,37.3,98,89,78,30.40,30.27,15,4,16,0.34
2013-11-25,44.9,41.4,39.2,43.2,39.7,37.3,97,94,86,30.28,30.01,17,5,17,0.44
2013-11-26,49.6,44.2,40.2,39.9,38.0,34.8,97,80,61,30.35,30.09,24,5,26,0.12
2013-11-27,52.9,43.4,36.8,36.5,31.2,26.3,80,63,36,30.47,30.34,13,2,18,0.00
2013-11-28,59.0,47.8,36.0,49.7,39.6,29.7,90,75,47,30.43,30.33,12,1,13,0.00
2013-11-29,65.9,55.4,45.2,57.9,51.6,44.1,97,87,73,30.43,30.34,20,3,20,0.00
2013-11-30,73.0,61.4,49.0,62.7,56.5,47.9,97,85,63,30.35,30.20,13,2,16,0.00
2013-12-1,75.3,64.4,53.6,64.2,60.0,52.1,98,86,67,30.21,29.98,14,2,15,0.00
2013-12-2,75.0,64.7,58.6,65.8,61.6,57.3,98,90,71,29.98,29.74,13,3,13,0.00
2013-12-3,74.0,66.6,61.6,67.4,63.9,60.4,97,91,78,29.77,29.65,17,5,17,0.01
2013-12-4,76.3,68.9,65.1,71.2,67.1,64.2,98,94,83,29.80,29.69,21,4,21,0.00
2013-12-5,73.5,60.9,41.5,71.8,58.6,37.1,99,92,83,30.00,29.78,20,3,21,0.01
2013-12-6,46.4,39.8,34.2,37.9,34.6,28.9,93,82,71,30.37,29.98,19,6,22,0.00
2013-12-7,34.2,33.7,33.0,30.8,29.4,27.8,90,84,79,30.43,30.27,17,4,17,0.00
2013-12-8,47.0,40.3,33.1,43.9,37.1,30.6,93,88,78,30.28,30.05,12,2,12,0.00
2013-12-9,51.7,46.9,40.6,51.2,46.0,39.3,98,97,91,30.27,30.01,20,4,20,0.06
2013-12-10,46.7,41.4,35.5,39.2,32.1,27.8,95,71,49,30.47,30.27,22,4,22,0.00
2013-12-11,53.2,48.6,43.3,44.1,39.1,33.6,75,70,66,30.49,30.31,15,2,15,0.00
2013-12-12,57.3,49.2,44.0,41.5,39.0,36.8,80,68,49,30.55,30.32,17,3,17,0.00
2013-12-13,67.0,55.6,43.4,60.5,49.7,39.1,94,81,72,30.32,29.87,10,2,11,0.00
2013-12-14,71.3,56.5,41.0,55.7,46.7,37.0,91,72,34,30.32,29.88,22,3,22,0.00
2013-12-15,58.8,44.4,34.0,42.7,35.8,31.4,95,74,36,30.44,30.30,11,1,11,0.00
2013-12-16,63.4,48.4,32.5,47.4,41.3,31.1,98,80,36,30.35,30.24,11,1,11,0.00
2013-12-17,69.3,53.5,37.6,57.3,49.1,36.8,98,87,54,30.34,30.23,10,1,10,0.02
2013-12-18,70.8,59.0,42.1,59.5,53.0,41.1,98,82,54,30.29,30.08,13,3,13,0.00
2013-12-19,71.6,65.8,62.1,65.3,62.3,57.7,97,89,79,30.08,29.84,23,5,23,0.00
2013-12-20,73.4,67.2,62.1,69.0,65.6,61.2,99,95,86,29.86,29.65,23,6,23,0.01
2013-12-21,75.4,66.5,58.2,69.1,62.6,55.4,97,88,58,29.80,29.58,22,5,24,0.00
2013-12-22,71.7,60.4,46.2,57.6,47.7,35.8,95,67,32,30.32,29.80,21,4,21,0.00
2013-12-23,58.1,46.2,37.1,36.3,32.0,27.1,80,60,31,30.53,30.32,19,3,19,0.00
2013-12-24,60.4,48.0,34.4,50.0,41.7,31.1,93,80,61,30.52,30.26,16,2,16,0.00
2013-12-25,68.8,56.4,46.5,60.0,53.2,44.3,97,90,68,30.31,30.20,11,1,11,0.02
2013-12-26,55.4,52.9,50.1,53.7,49.7,46.3,96,89,74,30.37,30.28,14,4,16,0.09
2013-12-27,54.8,50.7,48.5,51.5,48.8,47.3,98,93,80,30.40,30.30,11,1,11,0.12
2013-12-28,62.4,50.6,46.1,47.5,43.2,30.1,95,79,32,30.31,30.05,9,1,9,0.00
2013-12-29,64.3,54.5,40.7,54.2,48.4,38.7,96,81,57,30.13,30.00,14,1,14,0.00
2013-12-30,57.5,43.3,39.9,52.3,36.5,33.8,86,77,70,30.40,30.09,21,5,21,0.03
2013-12-31,46.1,43.2,41.2,42.6,37.5,33.6,94,81,68,30.44,30.26,12,2,12,0.04
2014-1-1,56.8,50.9,44.4,56.0,48.9,42.5,97,93,84,30.26,30.01,7,1,7,0.01
2014-1-2,57.4,49.3,37.3,56.6,38.3,28.3,97,68,41,30.45,30.05,21,4,22,0.00